Time;durP1;ratioP1;P1;durP2;ratioP2;P2;SDS_P1;SDS_P2;PMS_P1;PMS_P2;Temp;Humidity;BMP_temperature;BMP_pressure;BME280_temperature;BME280_humidity;BME280_pressure;Samples;Min_cycle;Max_cycle;Signal;HPM_P1;HPM_P2
2022/06/08 00:00:56;;;;;;;9.65;6.93;;;10.80;99.90;;;;;;4985755;28;20404;-74
2022/06/08 00:03:31;;;;;;;11.60;7.95;;;10.70;99.90;;;;;;4986227;28;20049;-74
2022/06/08 00:05:57;;;;;;;10.63;6.55;;;10.70;99.90;;;;;;4968754;28;20069;-74
2022/06/08 00:08:23;;;;;;;9.82;7.18;;;10.70;99.90;;;;;;4987551;28;20108;-74
2022/06/08 00:10:49;;;;;;;14.10;7.40;;;10.70;99.90;;;;;;4985881;28;20046;-74
2022/06/08 00:13:15;;;;;;;10.63;7.75;;;10.70;99.90;;;;;;4984485;28;20093;-74
2022/06/08 00:15:42;;;;;;;10.93;7.97;;;10.70;99.90;;;;;;4999382;28;20022;-74
2022/06/08 00:18:09;;;;;;;12.18;7.97;;;10.70;99.90;;;;;;4983794;28;20495;-74
2022/06/08 00:20:36;;;;;;;14.88;7.10;;;10.70;99.90;;;;;;4953792;28;20798;-74
2022/06/08 00:23:09;;;;;;;12.27;7.22;;;10.70;99.90;;;;;;4983348;28;20080;-74
2022/06/08 00:25:35;;;;;;;9.77;7.35;;;10.70;99.90;;;;;;4968415;28;20050;-74
2022/06/08 00:28:01;;;;;;;10.20;7.65;;;10.80;99.90;;;;;;4970057;28;20077;-74
2022/06/08 00:30:27;;;;;;;13.40;7.25;;;10.80;99.90;;;;;;4968604;28;20038;-74
2022/06/08 00:32:53;;;;;;;9.15;6.38;;;10.70;99.90;;;;;;4971841;28;20034;-73
2022/06/08 00:35:18;;;;;;;13.93;7.55;;;10.70;99.90;;;;;;4968196;28;20582;-73
2022/06/08 00:37:44;;;;;;;10.02;6.88;;;10.70;99.90;;;;;;4981097;28;20034;-74
2022/06/08 00:40:11;;;;;;;8.32;6.55;;;10.60;99.90;;;;;;4968362;28;20045;-74
2022/06/08 00:42:40;;;;;;;10.40;7.00;;;10.70;99.90;;;;;;4968145;28;20569;-74
2022/06/08 00:45:16;;;;;;;10.50;6.90;;;10.60;99.90;;;;;;4987626;28;20067;-74
2022/06/08 00:48:02;;;;;;;10.30;7.68;;;10.60;99.90;;;;;;4984489;28;20554;-73
2022/06/08 00:50:35;;;;;;;9.88;7.32;;;10.60;99.90;;;;;;4985815;28;20089;-73
2022/06/08 00:53:02;;;;;;;11.52;7.95;;;10.60;99.90;;;;;;5001077;28;20366;-73
2022/06/08 00:55:31;;;;;;;11.68;7.43;;;10.60;99.90;;;;;;4984489;28;20042;-74
2022/06/08 00:58:01;;;;;;;10.95;7.28;;;10.60;99.90;;;;;;4969594;28;20403;-74
2022/06/08 01:00:30;;;;;;;10.05;6.80;;;10.60;99.90;;;;;;4988480;28;20050;-73
2022/06/08 01:02:57;;;;;;;12.88;8.60;;;10.60;99.90;;;;;;4972463;28;20038;-73
2022/06/08 01:05:25;;;;;;;11.45;7.60;;;10.70;99.90;;;;;;4987585;28;20037;-73
2022/06/08 01:07:59;;;;;;;14.50;9.18;;;10.70;99.90;;;;;;4989980;28;21623;-73
2022/06/08 01:10:29;;;;;;;16.15;9.65;;;10.70;99.90;;;;;;4971559;28;20096;-73
2022/06/08 01:13:01;;;;;;;13.68;9.13;;;10.80;99.90;;;;;;4989887;28;21160;-73
2022/06/08 01:15:28;;;;;;;17.83;9.60;;;10.80;99.90;;;;;;4989396;28;20073;-73
2022/06/08 01:17:53;;;;;;;15.20;9.75;;;10.90;99.90;;;;;;4958682;28;20290;-74
2022/06/08 01:20:19;;;;;;;16.98;10.43;;;10.90;99.90;;;;;;4973745;28;20081;-73
2022/06/08 01:22:45;;;;;;;16.38;10.02;;;10.90;99.90;;;;;;4974226;28;20038;-73
2022/06/08 01:25:15;;;;;;;14.75;10.30;;;11.00;99.90;;;;;;4987848;28;20115;-73
2022/06/08 01:27:44;;;;;;;15.98;9.98;;;11.00;99.90;;;;;;4990157;28;20172;-73
2022/06/08 01:30:20;;;;;;;18.77;10.90;;;11.00;99.90;;;;;;4987467;28;20045;-73
2022/06/08 01:33:11;;;;;;;14.32;9.90;;;11.00;99.90;;;;;;4987663;28;20538;-73
2022/06/08 01:36:18;;;;;;;17.27;10.43;;;11.10;99.90;;;;;;4986435;28;20168;-73
2022/06/08 01:39:04;;;;;;;18.30;11.68;;;11.10;99.90;;;;;;4988796;28;20480;-74
2022/06/08 01:41:41;;;;;;;17.60;11.20;;;11.10;99.90;;;;;;4987693;28;20499;-74
2022/06/08 01:44:12;;;;;;;15.25;10.38;;;11.20;99.90;;;;;;4968264;28;20046;-73
2022/06/08 01:47:08;;;;;;;16.38;11.50;;;11.10;99.90;;;;;;4970245;28;21431;-73
2022/06/08 01:49:50;;;;;;;16.67;11.57;;;11.20;99.90;;;;;;4952122;28;20047;-73
2022/06/08 01:52:42;;;;;;;16.25;11.38;;;11.20;99.90;;;;;;4970312;28;20034;-74
2022/06/08 01:55:41;;;;;;;22.42;12.85;;;11.20;99.90;;;;;;4970362;28;20125;-73
2022/06/08 01:58:31;;;;;;;21.70;14.32;;;11.30;99.90;;;;;;4940245;28;20105;-73
2022/06/08 02:01:13;;;;;;;25.63;13.02;;;11.30;99.90;;;;;;4962208;28;20118;-74
2022/06/08 02:04:00;;;;;;;23.35;14.15;;;11.40;99.90;;;;;;4966881;28;20046;-73
2022/06/08 02:06:40;;;;;;;23.65;13.77;;;11.40;99.90;;;;;;4970398;28;20046;-74
2022/06/08 02:09:12;;;;;;;25.23;15.05;;;11.40;99.90;;;;;;4956347;28;20046;-73
2022/06/08 02:11:53;;;;;;;23.58;14.07;;;11.50;99.90;;;;;;4964370;28;20421;-74
2022/06/08 02:14:34;;;;;;;21.67;14.60;;;11.50;99.90;;;;;;4985111;28;20128;-74
2022/06/08 02:17:10;;;;;;;21.98;13.70;;;11.50;99.90;;;;;;4965172;28;20073;-74
2022/06/08 02:19:44;;;;;;;21.67;14.38;;;11.50;99.90;;;;;;4967841;28;20041;-74
2022/06/08 02:22:16;;;;;;;31.42;16.35;;;11.50;99.90;;;;;;4981751;28;20034;-73
2022/06/08 02:24:49;;;;;;;24.65;15.00;;;11.60;99.90;;;;;;4965721;28;20038;-74
2022/06/08 02:27:18;;;;;;;21.25;14.63;;;11.60;99.90;;;;;;4963092;28;20500;-73
2022/06/08 02:30:04;;;;;;;25.17;14.63;;;11.60;99.90;;;;;;4970713;28;20114;-73
2022/06/08 02:35:45;;;;;;;28.33;16.23;;;11.60;99.90;;;;;;4968149;28;20084;-74
2022/06/08 02:38:15;;;;;;;21.70;14.75;;;11.70;99.90;;;;;;4970057;28;20045;-74
2022/06/08 02:40:45;;;;;;;21.15;13.95;;;11.60;99.90;;;;;;4951825;28;20046;-74
2022/06/08 02:44:01;;;;;;;20.95;15.82;;;11.70;99.90;;;;;;4976458;28;20105;-74
2022/06/08 02:47:04;;;;;;;26.15;15.32;;;11.70;99.90;;;;;;4929405;29;20043;-74
2022/06/08 02:49:34;;;;;;;25.05;16.85;;;11.70;99.90;;;;;;4929035;29;20043;-74
2022/06/08 02:52:08;;;;;;;21.88;15.50;;;11.70;99.90;;;;;;4973015;28;20050;-74
2022/06/08 02:54:34;;;;;;;25.17;15.90;;;11.80;99.90;;;;;;4970666;28;20066;-74
2022/06/08 02:57:24;;;;;;;25.13;16.50;;;11.80;99.90;;;;;;4986958;28;20042;-74
2022/06/08 03:00:07;;;;;;;23.17;16.30;;;11.80;99.90;;;;;;4984516;28;20372;-74
2022/06/08 03:02:36;;;;;;;25.05;15.32;;;11.80;99.90;;;;;;4971718;28;20042;-74
2022/06/08 03:05:13;;;;;;;24.20;16.15;;;11.80;99.90;;;;;;4986870;28;20041;-74
2022/06/08 03:07:48;;;;;;;23.88;15.50;;;11.80;99.90;;;;;;4987081;28;20045;-74
2022/06/08 03:10:18;;;;;;;23.77;16.58;;;11.80;99.90;;;;;;4988078;28;20046;-74
2022/06/08 03:13:18;;;;;;;21.88;14.70;;;11.80;99.90;;;;;;4986718;28;20057;-74
2022/06/08 03:16:00;;;;;;;23.25;15.38;;;11.80;99.90;;;;;;4962276;28;20050;-74
2022/06/08 03:18:27;;;;;;;23.27;17.08;;;11.80;99.90;;;;;;4970216;28;20084;-74
2022/06/08 03:20:57;;;;;;;22.77;15.80;;;11.80;99.90;;;;;;4969515;28;20589;-74
2022/06/08 03:23:24;;;;;;;23.92;14.98;;;11.90;99.90;;;;;;4986604;28;20061;-73
2022/06/08 03:25:49;;;;;;;22.30;14.90;;;11.80;99.90;;;;;;4971167;28;20128;-73
2022/06/08 03:28:16;;;;;;;19.08;14.10;;;11.80;99.90;;;;;;4985643;28;20183;-74
2022/06/08 03:30:43;;;;;;;21.88;15.20;;;11.80;99.90;;;;;;4968732;28;20595;-74
2022/06/08 03:33:09;;;;;;;25.20;15.00;;;11.90;99.90;;;;;;4987253;28;20048;-74
2022/06/08 03:35:36;;;;;;;23.55;15.68;;;11.80;99.90;;;;;;4971188;28;20081;-74
2022/06/08 03:38:02;;;;;;;26.77;16.05;;;11.80;99.90;;;;;;4986072;28;20037;-74
2022/06/08 03:40:28;;;;;;;25.60;16.73;;;11.80;99.90;;;;;;4987766;28;20034;-74
2022/06/08 03:42:55;;;;;;;21.58;15.38;;;11.90;99.90;;;;;;4986353;28;20080;-73
2022/06/08 03:45:21;;;;;;;26.17;15.95;;;12.00;99.90;;;;;;4972125;28;20042;-73
2022/06/08 03:47:52;;;;;;;27.23;15.90;;;11.90;99.90;;;;;;4951345;28;20095;-74
2022/06/08 03:50:23;;;;;;;23.33;15.30;;;11.90;99.90;;;;;;4977332;28;20048;-73
2022/06/08 03:52:55;;;;;;;25.23;16.10;;;11.90;99.90;;;;;;4984261;28;20511;-73
2022/06/08 03:55:23;;;;;;;26.13;15.88;;;12.00;99.90;;;;;;4968866;28;20034;-73
2022/06/08 03:57:50;;;;;;;25.40;16.48;;;12.00;99.90;;;;;;4969553;28;20073;-74
2022/06/08 04:00:18;;;;;;;27.45;16.65;;;12.00;99.90;;;;;;4986018;28;20046;-73
2022/06/08 04:02:47;;;;;;;25.33;15.90;;;12.10;99.90;;;;;;4982001;28;20589;-73
2022/06/08 04:05:16;;;;;;;22.38;15.98;;;12.10;99.90;;;;;;4987591;28;20453;-73
2022/06/08 04:07:45;;;;;;;26.05;15.80;;;12.10;99.90;;;;;;4968138;28;20132;-73
2022/06/08 04:10:11;;;;;;;25.27;15.15;;;12.10;99.90;;;;;;4965742;28;20407;-73
2022/06/08 04:12:37;;;;;;;24.27;14.68;;;12.20;99.90;;;;;;4971268;28;20046;-73
2022/06/08 04:15:04;;;;;;;22.23;14.88;;;12.20;99.90;;;;;;4950700;28;20604;-73
2022/06/08 04:17:30;;;;;;;27.55;16.45;;;12.20;99.90;;;;;;4985920;28;20038;-74
2022/06/08 04:19:56;;;;;;;22.45;15.40;;;12.30;99.90;;;;;;4970771;28;20125;-73
2022/06/08 04:22:22;;;;;;;23.10;15.48;;;12.30;99.90;;;;;;4970434;28;20030;-74
2022/06/08 04:24:48;;;;;;;21.77;14.93;;;12.30;99.90;;;;;;4984785;28;20030;-73
2022/06/08 04:27:15;;;;;;;22.48;15.25;;;12.40;99.90;;;;;;4969025;28;20143;-73
2022/06/08 04:29:41;;;;;;;26.00;16.67;;;12.30;99.90;;;;;;4987018;28;20070;-73
2022/06/08 04:32:09;;;;;;;21.23;15.48;;;12.40;99.90;;;;;;4987024;28;20038;-73
2022/06/08 04:34:37;;;;;;;20.90;14.98;;;12.50;99.90;;;;;;4990610;28;20048;-73
2022/06/08 04:37:03;;;;;;;22.33;14.80;;;12.50;99.90;;;;;;4972656;28;20034;-73
2022/06/08 04:39:29;;;;;;;22.45;15.68;;;12.50;99.90;;;;;;4954708;28;20061;-73
2022/06/08 04:41:56;;;;;;;22.77;16.05;;;12.50;99.90;;;;;;4987937;28;20132;-74
2022/06/08 04:44:21;;;;;;;21.48;15.98;;;12.50;99.90;;;;;;4988916;28;20069;-74
2022/06/08 04:46:47;;;;;;;28.00;16.80;;;12.60;99.90;;;;;;4987908;28;20081;-73
2022/06/08 04:49:13;;;;;;;24.92;16.98;;;12.60;99.90;;;;;;4941808;28;20807;-74
2022/06/08 04:51:39;;;;;;;27.33;17.35;;;12.70;99.90;;;;;;4967541;28;20031;-74
2022/06/08 04:54:05;;;;;;;24.08;17.15;;;12.70;99.90;;;;;;4970445;28;20037;-73
2022/06/08 04:56:31;;;;;;;24.55;16.98;;;12.70;99.90;;;;;;4972652;28;20034;-74
2022/06/08 04:58:57;;;;;;;24.17;16.92;;;12.70;99.90;;;;;;4989099;28;20041;-74
2022/06/08 05:01:23;;;;;;;29.83;18.27;;;12.80;99.90;;;;;;4989692;28;20068;-73
2022/06/08 05:03:49;;;;;;;27.73;18.17;;;12.80;99.90;;;;;;4974588;28;20505;-73
2022/06/08 05:06:15;;;;;;;28.73;18.73;;;12.90;99.90;;;;;;4989801;28;20129;-74
2022/06/08 05:08:41;;;;;;;30.13;19.55;;;12.90;99.90;;;;;;4975104;28;20124;-73
2022/06/08 05:11:07;;;;;;;32.95;18.55;;;12.90;99.90;;;;;;4985912;28;20525;-74
2022/06/08 05:13:36;;;;;;;29.30;20.52;;;12.90;99.90;;;;;;4987928;28;20483;-74
2022/06/08 05:16:02;;;;;;;32.13;18.90;;;13.00;99.90;;;;;;4973401;28;20050;-73
2022/06/08 05:18:28;;;;;;;31.88;19.70;;;13.10;99.90;;;;;;4988730;28;20042;-74
2022/06/08 05:20:54;;;;;;;32.38;19.55;;;13.20;99.90;;;;;;4975746;28;20478;-74
2022/06/08 05:23:25;;;;;;;27.48;18.90;;;13.30;99.90;;;;;;4958680;28;20138;-73
2022/06/08 05:25:52;;;;;;;31.05;20.23;;;13.30;99.90;;;;;;4988222;28;20052;-74
2022/06/08 05:28:19;;;;;;;29.35;19.90;;;13.40;99.90;;;;;;4958700;28;20088;-74
2022/06/08 05:30:45;;;;;;;32.22;19.48;;;13.50;99.90;;;;;;4973125;28;20041;-74
2022/06/08 05:33:13;;;;;;;30.83;19.33;;;13.50;99.90;;;;;;4989362;28;20503;-74
2022/06/08 05:35:39;;;;;;;25.92;18.63;;;13.60;99.90;;;;;;4973420;28;20033;-74
2022/06/08 05:38:09;;;;;;;29.67;19.38;;;13.60;99.90;;;;;;4973239;28;20077;-74
2022/06/08 05:40:37;;;;;;;27.88;19.30;;;13.60;99.90;;;;;;4988646;28;20543;-74
2022/06/08 05:43:05;;;;;;;26.65;18.52;;;13.70;99.90;;;;;;4988342;28;20060;-74
2022/06/08 05:45:33;;;;;;;26.48;18.17;;;13.80;99.90;;;;;;4988873;28;20541;-74
2022/06/08 05:48:01;;;;;;;22.17;16.38;;;13.90;99.90;;;;;;4987667;28;20092;-74
2022/06/08 05:50:28;;;;;;;29.08;18.40;;;13.90;99.90;;;;;;4989684;28;20378;-74
2022/06/08 05:52:54;;;;;;;26.13;18.40;;;14.00;99.90;;;;;;4989493;28;20073;-74
2022/06/08 05:55:22;;;;;;;25.67;18.67;;;14.10;99.90;;;;;;4990324;28;20111;-74
2022/06/08 05:57:48;;;;;;;24.80;17.00;;;14.10;99.90;;;;;;4986372;28;20070;-74
2022/06/08 06:00:17;;;;;;;25.60;17.75;;;14.30;99.90;;;;;;4941630;28;20045;-74
2022/06/08 06:02:44;;;;;;;26.08;17.80;;;14.30;99.90;;;;;;4971438;28;20096;-74
2022/06/08 06:05:12;;;;;;;24.15;17.45;;;14.40;99.90;;;;;;4974476;28;20065;-74
2022/06/08 06:07:42;;;;;;;25.52;17.60;;;14.50;99.90;;;;;;4989155;28;20041;-74
2022/06/08 06:10:13;;;;;;;24.90;17.00;;;14.50;99.90;;;;;;4970799;28;20512;-74
2022/06/08 06:12:42;;;;;;;22.42;16.85;;;14.60;99.90;;;;;;4989078;28;20034;-74
2022/06/08 06:15:09;;;;;;;20.80;15.55;;;14.60;99.90;;;;;;4972773;28;20049;-74
2022/06/08 06:17:34;;;;;;;23.70;16.42;;;14.60;99.90;;;;;;4970604;28;20034;-74
2022/06/08 06:20:00;;;;;;;21.23;14.82;;;14.70;99.90;;;;;;4987357;28;20068;-74
2022/06/08 06:22:26;;;;;;;23.27;15.52;;;14.80;99.90;;;;;;4984468;28;20038;-74
2022/06/08 06:24:52;;;;;;;25.65;16.45;;;14.90;99.90;;;;;;4988303;28;20515;-74
2022/06/08 06:27:19;;;;;;;21.05;15.93;;;14.90;99.90;;;;;;4970204;28;20038;-74
2022/06/08 06:29:45;;;;;;;21.17;15.48;;;15.00;99.90;;;;;;4987238;28;20050;-74
2022/06/08 06:32:28;;;;;;;22.38;15.52;;;15.10;99.90;;;;;;4971511;28;20530;-74
2022/06/08 06:34:55;;;;;;;22.95;15.60;;;15.10;99.90;;;;;;4971122;28;20034;-75
2022/06/08 06:37:21;;;;;;;22.42;15.55;;;15.20;99.90;;;;;;4986462;28;20042;-74
2022/06/08 06:39:47;;;;;;;23.92;15.52;;;15.30;99.90;;;;;;4949991;28;20121;-74
2022/06/08 06:42:22;;;;;;;25.15;16.75;;;15.40;99.90;;;;;;4962979;28;20053;-74
2022/06/08 06:44:47;;;;;;;23.17;15.85;;;15.60;99.90;;;;;;4963576;28;20041;-74
2022/06/08 06:47:14;;;;;;;23.77;14.70;;;15.70;99.90;;;;;;4964563;28;20108;-74
2022/06/08 06:49:40;;;;;;;22.33;14.63;;;15.80;99.90;;;;;;4965173;28;20054;-74
2022/06/08 06:52:06;;;;;;;24.90;15.02;;;15.80;99.90;;;;;;4980738;28;20104;-74
2022/06/08 06:54:32;;;;;;;21.38;15.32;;;15.90;99.90;;;;;;4958990;28;20041;-74
2022/06/08 06:56:58;;;;;;;22.80;15.77;;;16.00;99.90;;;;;;4962019;28;20037;-74
2022/06/08 06:59:24;;;;;;;19.45;13.48;;;16.10;99.90;;;;;;4985208;28;20046;-74
2022/06/08 07:01:50;;;;;;;18.92;13.57;;;16.10;99.90;;;;;;4965858;28;20049;-74
2022/06/08 07:04:18;;;;;;;20.65;15.07;;;16.20;99.90;;;;;;4976873;28;20049;-74
2022/06/08 07:06:44;;;;;;;17.40;12.52;;;16.30;99.90;;;;;;4964479;28;20053;-74
2022/06/08 07:09:10;;;;;;;15.40;11.00;;;16.50;99.90;;;;;;4981508;28;20153;-74
2022/06/08 07:11:39;;;;;;;14.05;9.75;;;16.60;99.90;;;;;;4979055;28;20040;-74
2022/06/08 07:14:08;;;;;;;15.43;10.95;;;16.80;99.90;;;;;;4965244;28;20045;-74
2022/06/08 07:16:34;;;;;;;12.65;9.20;;;17.00;99.90;;;;;;4980023;28;20128;-75
2022/06/08 07:19:01;;;;;;;14.00;9.88;;;17.20;99.90;;;;;;4981656;28;20076;-74
2022/06/08 07:21:27;;;;;;;11.82;8.63;;;17.30;99.90;;;;;;4979543;28;20116;-75
2022/06/08 07:23:54;;;;;;;10.60;8.45;;;17.40;99.90;;;;;;4947951;28;20506;-74
2022/06/08 07:26:24;;;;;;;12.23;8.13;;;17.50;99.90;;;;;;4979217;28;20037;-76
2022/06/08 07:28:54;;;;;;;10.45;7.80;;;17.50;99.90;;;;;;4979950;28;20034;-74
2022/06/08 07:31:20;;;;;;;11.35;8.80;;;17.60;99.90;;;;;;4981489;28;20092;-75
2022/06/08 07:33:46;;;;;;;11.45;8.25;;;17.70;99.90;;;;;;4964279;28;20164;-75
2022/06/08 07:36:13;;;;;;;11.10;7.40;;;17.80;99.90;;;;;;4964862;28;20040;-74
2022/06/08 07:38:38;;;;;;;12.40;7.78;;;18.00;99.90;;;;;;4964607;28;21848;-74
2022/06/08 07:41:04;;;;;;;12.73;7.93;;;18.10;99.90;;;;;;4963258;28;20056;-74
2022/06/08 07:43:30;;;;;;;11.57;7.88;;;18.10;99.90;;;;;;4963140;28;20081;-74
2022/06/08 07:45:56;;;;;;;8.43;6.43;;;18.30;99.90;;;;;;4964012;28;20081;-74
2022/06/08 07:51:06;;;;;;;5.35;3.80;;;18.40;99.90;;;;;;4983238;28;20053;-74
2022/06/08 07:53:32;;;;;;;6.25;4.55;;;18.50;99.90;;;;;;4964174;28;20108;-75
2022/06/08 07:56:01;;;;;;;7.28;4.10;;;18.50;99.90;;;;;;4963027;28;20057;-75
2022/06/08 07:58:27;;;;;;;7.22;4.93;;;18.40;99.90;;;;;;4981109;28;20144;-75
2022/06/08 08:00:53;;;;;;;10.18;5.00;;;18.40;99.90;;;;;;4983215;28;21050;-75
2022/06/08 08:03:19;;;;;;;5.93;4.85;;;18.40;99.90;;;;;;4978168;28;20049;-75
2022/06/08 08:05:46;;;;;;;5.78;4.85;;;18.40;99.90;;;;;;4976089;28;20030;-74
2022/06/08 08:08:14;;;;;;;7.45;5.28;;;18.50;99.90;;;;;;4979411;28;20038;-74
2022/06/08 08:10:39;;;;;;;7.00;5.07;;;18.60;99.90;;;;;;4964705;28;20750;-74
2022/06/08 08:13:07;;;;;;;7.63;5.60;;;18.70;99.90;;;;;;4960974;28;20034;-75
2022/06/08 08:15:33;;;;;;;7.43;5.60;;;18.80;99.90;;;;;;4948168;28;20036;-74
2022/06/08 08:18:00;;;;;;;7.18;4.55;;;19.00;99.90;;;;;;4964910;28;20064;-74
2022/06/08 08:20:28;;;;;;;6.40;4.18;;;19.10;99.90;;;;;;4964611;28;20038;-75
2022/06/08 08:22:56;;;;;;;7.00;4.90;;;19.20;99.90;;;;;;4978391;28;20732;-75
2022/06/08 08:25:22;;;;;;;5.63;4.00;;;19.30;99.90;;;;;;4965550;28;20050;-75
2022/06/08 08:27:49;;;;;;;7.30;4.25;;;19.40;99.90;;;;;;4979571;28;20549;-75
2022/06/08 08:30:18;;;;;;;8.35;3.85;;;19.50;99.90;;;;;;4979207;28;20037;-75
2022/06/08 08:32:44;;;;;;;6.50;3.90;;;19.70;99.90;;;;;;4963757;28;20034;-74
2022/06/08 08:35:12;;;;;;;5.10;4.30;;;19.90;99.90;;;;;;4981594;28;20048;-74
2022/06/08 08:37:41;;;;;;;7.65;4.03;;;20.10;99.90;;;;;;4961527;28;20306;-74
2022/06/08 08:40:13;;;;;;;4.55;3.45;;;20.20;99.90;;;;;;4965414;28;20045;-74
2022/06/08 08:42:39;;;;;;;3.25;2.42;;;20.30;99.90;;;;;;4977633;28;20469;-75
2022/06/08 08:45:11;;;;;;;5.68;3.67;;;20.40;99.90;;;;;;4948465;28;20053;-75
2022/06/08 08:48:07;;;;;;;4.90;3.40;;;20.50;99.90;;;;;;4977691;28;20118;-74
2022/06/08 08:50:41;;;;;;;4.25;3.00;;;20.50;99.90;;;;;;4980193;28;20046;-74
2022/06/08 08:53:20;;;;;;;6.05;3.88;;;20.50;99.90;;;;;;4979629;28;20042;-75
2022/06/08 08:56:01;;;;;;;5.20;3.78;;;20.60;99.90;;;;;;4964046;28;20579;-75
2022/06/08 08:58:34;;;;;;;5.50;2.90;;;20.80;99.90;;;;;;4978881;28;20042;-75
2022/06/08 09:01:22;;;;;;;4.05;2.72;;;20.90;99.90;;;;;;4981374;28;20038;-75
2022/06/08 09:03:54;;;;;;;5.03;2.88;;;20.70;99.90;;;;;;4966171;28;20062;-75
2022/06/08 09:06:27;;;;;;;6.13;3.60;;;20.60;99.90;;;;;;4966591;28;20153;-74
2022/06/08 09:08:58;;;;;;;5.68;3.65;;;20.40;99.90;;;;;;4982432;28;20041;-75
2022/06/08 09:11:36;;;;;;;5.32;3.72;;;20.30;99.90;;;;;;4964062;28;20115;-75
2022/06/08 09:14:08;;;;;;;4.95;3.15;;;20.40;99.90;;;;;;4979387;28;20052;-74
2022/06/08 09:16:41;;;;;;;6.38;4.70;;;20.70;99.90;;;;;;4979972;28;20034;-75
2022/06/08 09:19:22;;;;;;;9.93;5.65;;;21.20;99.90;;;;;;4994328;28;20053;-75
2022/06/08 09:22:16;;;;;;;7.80;5.63;;;21.00;99.90;;;;;;4982487;28;20102;-74
2022/06/08 09:24:44;;;;;;;7.15;6.18;;;20.80;99.90;;;;;;4970507;28;20292;-74
2022/06/08 09:27:16;;;;;;;6.65;5.43;;;20.60;99.90;;;;;;4983916;28;20042;-74
2022/06/08 09:30:09;;;;;;;8.27;5.28;;;20.60;99.90;;;;;;4967410;28;20042;-74
2022/06/08 09:32:38;;;;;;;6.47;3.80;;;20.80;99.90;;;;;;4987017;28;20301;-74
2022/06/08 09:35:15;;;;;;;5.55;3.85;;;21.00;99.90;;;;;;4971661;28;20037;-75
2022/06/08 09:37:41;;;;;;;7.72;3.67;;;21.10;99.90;;;;;;4981559;28;20589;-75
2022/06/08 09:43:17;;;;;;;6.85;4.10;;;21.20;99.90;;;;;;4984318;28;20053;-73
2022/06/08 09:46:05;;;;;;;5.97;3.75;;;21.20;99.90;;;;;;4971431;28;20461;-74
2022/06/08 09:52:16;;;;;;;8.13;4.60;;;21.10;99.90;;;;;;4987047;28;20110;-74
2022/06/08 09:55:08;;;;;;;5.93;3.80;;;21.20;99.90;;;;;;4969695;28;21046;-73
2022/06/08 09:57:34;;;;;;;6.15;3.60;;;21.30;99.90;;;;;;4985609;28;20034;-73
2022/06/08 10:00:08;;;;;;;5.32;3.53;;;21.20;99.90;;;;;;5001622;28;20104;-73
2022/06/08 10:03:05;;;;;;;5.90;4.30;;;21.30;99.90;;;;;;4985387;28;20418;-74
2022/06/08 10:05:54;;;;;;;5.63;4.05;;;21.50;99.90;;;;;;4986645;28;20056;-72
2022/06/08 10:08:51;;;;;;;5.75;4.25;;;21.60;99.90;;;;;;4969690;28;20050;-73
2022/06/08 10:11:53;;;;;;;5.32;3.95;;;21.60;99.90;;;;;;4984964;28;20499;-73
2022/06/08 10:14:24;;;;;;;5.15;3.40;;;21.60;99.90;;;;;;4968407;28;20042;-73
2022/06/08 10:17:17;;;;;;;5.63;3.50;;;21.70;99.90;;;;;;4971041;28;20542;-73
2022/06/08 10:20:16;;;;;;;6.57;3.50;;;21.80;99.90;;;;;;4986732;28;20057;-73
2022/06/08 10:22:47;;;;;;;6.38;3.70;;;22.10;99.90;;;;;;4945730;28;20415;-73
2022/06/08 10:25:38;;;;;;;6.40;3.45;;;22.30;99.90;;;;;;4965715;28;20054;-73
2022/06/08 10:28:15;;;;;;;4.82;2.90;;;22.30;99.90;;;;;;4985317;28;20038;-72
2022/06/08 10:30:49;;;;;;;4.45;3.15;;;22.50;99.90;;;;;;4981273;28;20082;-73
2022/06/08 10:33:41;;;;;;;3.90;3.00;;;22.70;99.90;;;;;;4982807;28;20045;-73
2022/06/08 10:36:10;;;;;;;4.40;3.00;;;22.60;99.90;;;;;;4981526;28;20054;-73
2022/06/08 10:38:42;;;;;;;3.95;2.70;;;22.60;99.90;;;;;;4988668;28;20048;-73
2022/06/08 10:44:24;;;;;;;6.03;3.08;;;22.60;99.90;;;;;;5002623;28;20093;-75
2022/06/08 10:46:51;;;;;;;4.43;2.95;;;22.50;99.90;;;;;;4988318;28;20140;-75
2022/06/08 10:49:32;;;;;;;4.90;3.22;;;22.60;99.90;;;;;;4989693;28;20034;-76
2022/06/08 10:52:20;;;;;;;5.80;3.30;;;22.80;99.90;;;;;;4974543;28;20554;-76
2022/06/08 10:55:11;;;;;;;5.00;3.00;;;23.00;99.90;;;;;;4987085;28;20491;-76
2022/06/08 10:57:47;;;;;;;3.88;3.30;;;23.20;99.90;;;;;;4932143;28;20095;-75
2022/06/08 11:00:19;;;;;;;4.65;3.10;;;23.30;99.90;;;;;;5008321;28;20046;-75
2022/06/08 11:03:03;;;;;;;4.40;2.72;;;23.40;99.90;;;;;;4980672;28;20050;-76
2022/06/08 11:05:28;;;;;;;6.53;2.88;;;23.50;99.90;;;;;;5005457;28;20053;-75
2022/06/08 11:08:06;;;;;;;3.20;2.67;;;23.50;99.90;;;;;;4985070;28;20395;-75
2022/06/08 11:10:44;;;;;;;4.70;3.00;;;23.60;99.90;;;;;;4988829;28;20129;-75
2022/06/08 11:13:25;;;;;;;3.85;3.35;;;23.80;99.90;;;;;;4991749;28;20045;-74
2022/06/08 11:16:00;;;;;;;3.83;2.63;;;23.90;99.90;;;;;;4991462;28;20069;-75
2022/06/08 11:18:47;;;;;;;5.25;2.95;;;23.80;99.50;;;;;;4992825;28;20046;-75
2022/06/08 11:21:41;;;;;;;4.40;2.70;;;23.50;99.80;;;;;;4992672;28;20455;-75
2022/06/08 11:24:17;;;;;;;7.93;2.72;;;23.50;99.90;;;;;;4992343;28;20458;-75
2022/06/08 11:26:45;;;;;;;8.23;3.22;;;23.70;99.90;;;;;;4976339;28;20076;-75
2022/06/08 11:29:17;;;;;;;5.45;2.47;;;23.40;99.50;;;;;;4992381;28;20100;-75
2022/06/08 11:31:43;;;;;;;3.53;2.67;;;23.40;98.60;;;;;;4985768;28;20030;-75
2022/06/08 11:34:21;;;;;;;4.55;2.45;;;23.30;99.70;;;;;;4975153;28;20049;-75
2022/06/08 11:37:24;;;;;;;2.85;2.30;;;23.40;99.90;;;;;;4991990;28;20503;-75
2022/06/08 11:40:25;;;;;;;4.22;2.60;;;23.40;98.50;;;;;;4977869;28;20048;-75
2022/06/08 11:42:56;;;;;;;4.88;2.45;;;23.30;99.70;;;;;;4963159;28;20057;-75
2022/06/08 11:45:34;;;;;;;3.85;2.60;;;23.20;99.70;;;;;;4965949;28;20519;-75
2022/06/08 11:48:08;;;;;;;4.00;2.80;;;23.20;99.10;;;;;;4980228;28;20042;-75
2022/06/08 11:50:45;;;;;;;8.30;2.60;;;23.10;99.20;;;;;;4991217;28;20046;-75
2022/06/08 11:53:26;;;;;;;5.38;2.58;;;23.10;99.40;;;;;;4989664;28;20038;-75
2022/06/08 11:56:27;;;;;;;3.30;2.33;;;23.20;99.70;;;;;;4984145;28;20507;-75
2022/06/08 11:58:55;;;;;;;3.45;2.17;;;23.20;99.90;;;;;;4985370;28;20133;-75
2022/06/08 12:01:25;;;;;;;3.60;2.10;;;23.20;99.90;;;;;;4975418;28;20044;-75
2022/06/08 12:03:59;;;;;;;4.70;2.35;;;23.10;99.60;;;;;;4992509;28;20046;-75
2022/06/08 12:06:28;;;;;;;3.45;2.30;;;22.90;99.50;;;;;;4975264;28;20602;-75
2022/06/08 12:09:05;;;;;;;3.10;2.40;;;22.60;99.50;;;;;;4992272;28;20120;-75
2022/06/08 12:11:33;;;;;;;2.97;2.17;;;22.50;99.90;;;;;;4976011;28;20038;-75
2022/06/08 12:14:23;;;;;;;4.20;2.10;;;22.30;99.90;;;;;;5005227;28;20041;-75
2022/06/08 12:16:51;;;;;;;3.85;2.00;;;22.20;99.40;;;;;;4991288;28;20401;-74
2022/06/08 12:19:19;;;;;;;4.43;1.27;;;21.80;98.90;;;;;;4976525;28;20041;-77
2022/06/08 12:21:48;;;;;;;6.85;1.25;;;21.40;99.40;;;;;;4973567;28;20068;-76
2022/06/08 12:24:13;;;;;;;1.77;1.20;;;20.70;99.90;;;;;;4976534;28;20442;-76
2022/06/08 12:26:46;;;;;;;4.22;1.35;;;20.40;99.90;;;;;;4990612;28;20034;-76
2022/06/08 12:29:26;;;;;;;3.78;1.52;;;19.90;99.90;;;;;;4992408;28;20037;-75
2022/06/08 12:32:30;;;;;;;4.15;1.30;;;19.60;99.90;;;;;;4972885;28;20045;-76
2022/06/08 12:35:05;;;;;;;4.18;1.67;;;19.20;99.90;;;;;;4951363;28;21498;-75
2022/06/08 12:37:38;;;;;;;3.47;1.30;;;19.00;99.90;;;;;;4974644;28;20034;-75
2022/06/08 12:40:16;;;;;;;4.38;1.60;;;18.70;99.90;;;;;;4983715;28;20460;-75
2022/06/08 12:42:59;;;;;;;5.63;1.70;;;18.50;99.90;;;;;;4972367;28;20508;-76
2022/06/08 12:45:30;;;;;;;3.88;2.25;;;18.30;99.90;;;;;;4984574;28;20033;-76
2022/06/08 12:47:57;;;;;;;4.63;2.17;;;18.20;99.90;;;;;;4980410;28;20367;-76
2022/06/08 12:50:29;;;;;;;8.15;2.85;;;18.10;99.90;;;;;;4991379;28;20625;-76
2022/06/08 12:52:56;;;;;;;7.57;2.47;;;18.10;99.90;;;;;;4978187;28;20387;-75
2022/06/08 12:55:26;;;;;;;8.00;3.35;;;18.00;99.90;;;;;;4986887;28;20204;-76
2022/06/08 12:57:52;;;;;;;6.53;2.55;;;18.00;99.90;;;;;;4991704;28;20046;-76
2022/06/08 13:00:22;;;;;;;5.75;2.50;;;17.90;99.90;;;;;;4963634;28;20046;-76
2022/06/08 13:02:50;;;;;;;6.50;2.70;;;17.90;99.90;;;;;;4961764;28;20053;-75
2022/06/08 13:05:29;;;;;;;6.72;2.80;;;17.90;99.90;;;;;;4993470;28;20468;-75
2022/06/08 13:07:57;;;;;;;5.05;2.50;;;18.00;99.90;;;;;;4995804;28;20092;-75
2022/06/08 13:10:25;;;;;;;9.68;3.15;;;18.00;99.90;;;;;;4993270;28;20045;-75
2022/06/08 13:12:55;;;;;;;6.20;2.83;;;18.00;99.90;;;;;;4979018;28;20034;-76
2022/06/08 13:15:27;;;;;;;6.85;2.90;;;18.10;99.90;;;;;;4993979;28;20523;-76
2022/06/08 13:17:53;;;;;;;;;;;18.20;99.90;;;;;;4995152;28;20046;-76